sensor_id;sensor_type;location;lat;lon;timestamp;P1;durP1;ratioP1;P2;durP2;ratioP2
67839;SDS011;54636;51.684;5.142;2023-02-28T00:00:25;9.93;;;4.43;;
67839;SDS011;54636;51.684;5.142;2023-02-28T00:02:51;4.70;;;4.00;;
67839;SDS011;54636;51.684;5.142;2023-02-28T00:05:18;6.18;;;4.68;;
67839;SDS011;54636;51.684;5.142;2023-02-28T00:07:45;4.70;;;4.30;;
67839;SDS011;54636;51.684;5.142;2023-02-28T00:10:12;6.55;;;4.28;;
67839;SDS011;54636;51.684;5.142;2023-02-28T00:12:39;7.78;;;4.28;;
67839;SDS011;54636;51.684;5.142;2023-02-28T00:15:06;8.35;;;4.05;;
67839;SDS011;54636;51.684;5.142;2023-02-28T00:17:33;5.75;;;4.13;;
67839;SDS011;54636;51.684;5.142;2023-02-28T00:19:59;6.95;;;4.28;;
67839;SDS011;54636;51.684;5.142;2023-02-28T00:22:43;9.00;;;3.85;;
67839;SDS011;54636;51.684;5.142;2023-02-28T00:25:11;4.07;;;3.70;;
67839;SDS011;54636;51.684;5.142;2023-02-28T00:27:38;6.30;;;4.53;;
67839;SDS011;54636;51.684;5.142;2023-02-28T00:30:05;5.65;;;4.25;;
67839;SDS011;54636;51.684;5.142;2023-02-28T00:32:33;4.38;;;3.97;;
67839;SDS011;54636;51.684;5.142;2023-02-28T00:34:59;4.28;;;3.88;;
67839;SDS011;54636;51.684;5.142;2023-02-28T00:37:25;5.95;;;4.70;;
67839;SDS011;54636;51.684;5.142;2023-02-28T00:39:50;6.68;;;4.65;;
67839;SDS011;54636;51.684;5.142;2023-02-28T00:42:15;9.77;;;4.20;;
67839;SDS011;54636;51.684;5.142;2023-02-28T00:44:41;9.95;;;4.95;;
67839;SDS011;54636;51.684;5.142;2023-02-28T00:47:06;5.03;;;4.47;;
67839;SDS011;54636;51.684;5.142;2023-02-28T00:49:32;8.93;;;5.15;;
67839;SDS011;54636;51.684;5.142;2023-02-28T00:51:57;5.50;;;3.83;;
67839;SDS011;54636;51.684;5.142;2023-02-28T00:54:23;5.20;;;4.47;;
67839;SDS011;54636;51.684;5.142;2023-02-28T00:56:49;5.32;;;4.82;;
67839;SDS011;54636;51.684;5.142;2023-02-28T00:59:16;6.28;;;4.25;;
67839;SDS011;54636;51.684;5.142;2023-02-28T01:01:42;7.40;;;4.10;;
67839;SDS011;54636;51.684;5.142;2023-02-28T01:04:08;6.07;;;4.05;;
67839;SDS011;54636;51.684;5.142;2023-02-28T01:06:34;5.72;;;4.80;;
67839;SDS011;54636;51.684;5.142;2023-02-28T01:09:01;5.35;;;4.85;;
67839;SDS011;54636;51.684;5.142;2023-02-28T01:11:26;4.88;;;4.45;;
67839;SDS011;54636;51.684;5.142;2023-02-28T01:13:52;7.47;;;4.30;;
67839;SDS011;54636;51.684;5.142;2023-02-28T01:16:17;6.65;;;4.82;;
67839;SDS011;54636;51.684;5.142;2023-02-28T01:18:43;4.85;;;4.40;;
67839;SDS011;54636;51.684;5.142;2023-02-28T01:21:10;4.35;;;4.00;;
67839;SDS011;54636;51.684;5.142;2023-02-28T01:23:38;7.13;;;4.43;;
67839;SDS011;54636;51.684;5.142;2023-02-28T01:26:08;4.47;;;4.10;;
67839;SDS011;54636;51.684;5.142;2023-02-28T01:28:44;7.07;;;4.50;;
67839;SDS011;54636;51.684;5.142;2023-02-28T01:31:09;4.80;;;4.40;;
67839;SDS011;54636;51.684;5.142;2023-02-28T01:33:35;6.05;;;4.40;;
67839;SDS011;54636;51.684;5.142;2023-02-28T01:36:02;7.65;;;4.85;;
67839;SDS011;54636;51.684;5.142;2023-02-28T01:38:29;4.65;;;4.25;;
67839;SDS011;54636;51.684;5.142;2023-02-28T01:40:55;5.05;;;4.25;;
67839;SDS011;54636;51.684;5.142;2023-02-28T01:45:46;5.80;;;4.30;;
67839;SDS011;54636;51.684;5.142;2023-02-28T01:48:12;5.05;;;4.55;;
67839;SDS011;54636;51.684;5.142;2023-02-28T01:50:39;4.20;;;3.90;;
67839;SDS011;54636;51.684;5.142;2023-02-28T01:53:10;4.03;;;3.72;;
67839;SDS011;54636;51.684;5.142;2023-02-28T01:55:39;6.35;;;3.85;;
67839;SDS011;54636;51.684;5.142;2023-02-28T01:58:07;5.18;;;4.22;;
67839;SDS011;54636;51.684;5.142;2023-02-28T02:00:34;5.90;;;3.88;;
67839;SDS011;54636;51.684;5.142;2023-02-28T02:03:01;4.30;;;3.90;;
67839;SDS011;54636;51.684;5.142;2023-02-28T02:05:34;4.63;;;3.60;;
67839;SDS011;54636;51.684;5.142;2023-02-28T02:08:04;7.70;;;4.13;;
67839;SDS011;54636;51.684;5.142;2023-02-28T02:10:34;4.18;;;3.72;;
67839;SDS011;54636;51.684;5.142;2023-02-28T02:26:43;5.75;;;4.07;;
67839;SDS011;54636;51.684;5.142;2023-02-28T02:32:33;5.43;;;4.63;;
67839;SDS011;54636;51.684;5.142;2023-02-28T02:40:25;4.55;;;4.15;;
67839;SDS011;54636;51.684;5.142;2023-02-28T02:42:58;4.43;;;4.03;;
67839;SDS011;54636;51.684;5.142;2023-02-28T02:48:29;5.95;;;5.07;;
67839;SDS011;54636;51.684;5.142;2023-02-28T02:50:59;3.97;;;3.25;;
67839;SDS011;54636;51.684;5.142;2023-02-28T02:53:30;7.07;;;4.28;;
67839;SDS011;54636;51.684;5.142;2023-02-28T02:56:03;5.88;;;4.60;;
67839;SDS011;54636;51.684;5.142;2023-02-28T02:58:32;6.40;;;4.82;;
67839;SDS011;54636;51.684;5.142;2023-02-28T03:01:07;8.50;;;4.63;;
67839;SDS011;54636;51.684;5.142;2023-02-28T03:03:35;7.78;;;4.70;;
67839;SDS011;54636;51.684;5.142;2023-02-28T03:06:01;8.20;;;4.97;;
67839;SDS011;54636;51.684;5.142;2023-02-28T03:08:29;7.05;;;4.57;;
67839;SDS011;54636;51.684;5.142;2023-02-28T03:10:59;4.40;;;4.00;;
67839;SDS011;54636;51.684;5.142;2023-02-28T03:13:36;6.00;;;4.32;;
67839;SDS011;54636;51.684;5.142;2023-02-28T03:18:54;5.97;;;4.07;;
67839;SDS011;54636;51.684;5.142;2023-02-28T03:24:48;4.55;;;4.15;;
67839;SDS011;54636;51.684;5.142;2023-02-28T03:27:27;4.28;;;3.88;;
67839;SDS011;54636;51.684;5.142;2023-02-28T03:32:33;4.53;;;4.10;;
67839;SDS011;54636;51.684;5.142;2023-02-28T03:37:53;4.93;;;4.32;;
67839;SDS011;54636;51.684;5.142;2023-02-28T03:40:26;4.10;;;3.70;;
67839;SDS011;54636;51.684;5.142;2023-02-28T03:42:58;4.45;;;3.95;;
67839;SDS011;54636;51.684;5.142;2023-02-28T03:45:28;5.50;;;3.83;;
67839;SDS011;54636;51.684;5.142;2023-02-28T03:47:58;5.40;;;3.87;;
67839;SDS011;54636;51.684;5.142;2023-02-28T03:50:29;4.65;;;3.90;;
67839;SDS011;54636;51.684;5.142;2023-02-28T03:53:04;4.45;;;3.53;;
67839;SDS011;54636;51.684;5.142;2023-02-28T03:55:37;6.32;;;4.70;;
67839;SDS011;54636;51.684;5.142;2023-02-28T04:00:53;5.32;;;3.65;;
67839;SDS011;54636;51.684;5.142;2023-02-28T04:03:24;6.13;;;4.15;;
67839;SDS011;54636;51.684;5.142;2023-02-28T04:05:50;7.50;;;3.95;;
67839;SDS011;54636;51.684;5.142;2023-02-28T04:08:18;4.43;;;3.72;;
67839;SDS011;54636;51.684;5.142;2023-02-28T04:10:45;5.05;;;3.90;;
67839;SDS011;54636;51.684;5.142;2023-02-28T04:13:18;5.13;;;3.33;;
67839;SDS011;54636;51.684;5.142;2023-02-28T04:15:43;6.22;;;4.57;;
67839;SDS011;54636;51.684;5.142;2023-02-28T04:18:08;4.63;;;3.75;;
67839;SDS011;54636;51.684;5.142;2023-02-28T04:20:34;8.13;;;4.45;;
67839;SDS011;54636;51.684;5.142;2023-02-28T04:22:59;6.85;;;4.75;;
67839;SDS011;54636;51.684;5.142;2023-02-28T04:25:24;8.32;;;4.28;;
67839;SDS011;54636;51.684;5.142;2023-02-28T04:27:50;6.55;;;3.97;;
67839;SDS011;54636;51.684;5.142;2023-02-28T04:30:15;7.65;;;4.55;;
67839;SDS011;54636;51.684;5.142;2023-02-28T04:32:41;6.90;;;3.78;;
67839;SDS011;54636;51.684;5.142;2023-02-28T04:35:06;8.15;;;4.40;;
67839;SDS011;54636;51.684;5.142;2023-02-28T04:37:32;4.82;;;4.22;;
67839;SDS011;54636;51.684;5.142;2023-02-28T04:40:01;4.22;;;3.88;;
67839;SDS011;54636;51.684;5.142;2023-02-28T04:42:26;5.90;;;4.22;;
67839;SDS011;54636;51.684;5.142;2023-02-28T04:44:51;10.00;;;4.43;;
67839;SDS011;54636;51.684;5.142;2023-02-28T04:47:17;9.15;;;4.55;;
67839;SDS011;54636;51.684;5.142;2023-02-28T04:49:42;5.00;;;4.47;;
67839;SDS011;54636;51.684;5.142;2023-02-28T04:52:08;6.18;;;4.10;;
67839;SDS011;54636;51.684;5.142;2023-02-28T04:54:35;12.75;;;4.72;;
67839;SDS011;54636;51.684;5.142;2023-02-28T04:57:00;7.45;;;4.85;;
67839;SDS011;54636;51.684;5.142;2023-02-28T04:59:26;5.57;;;4.00;;
67839;SDS011;54636;51.684;5.142;2023-02-28T05:01:52;6.13;;;4.60;;
67839;SDS011;54636;51.684;5.142;2023-02-28T05:04:17;7.88;;;4.00;;
67839;SDS011;54636;51.684;5.142;2023-02-28T05:06:43;5.15;;;4.70;;
67839;SDS011;54636;51.684;5.142;2023-02-28T05:09:08;5.22;;;3.70;;
67839;SDS011;54636;51.684;5.142;2023-02-28T05:11:36;5.97;;;4.28;;
67839;SDS011;54636;51.684;5.142;2023-02-28T05:14:04;4.57;;;4.18;;
67839;SDS011;54636;51.684;5.142;2023-02-28T05:16:31;4.80;;;3.88;;
67839;SDS011;54636;51.684;5.142;2023-02-28T05:18:57;4.22;;;3.30;;
67839;SDS011;54636;51.684;5.142;2023-02-28T05:21:27;5.70;;;3.75;;
67839;SDS011;54636;51.684;5.142;2023-02-28T05:23:53;5.78;;;4.07;;
67839;SDS011;54636;51.684;5.142;2023-02-28T05:26:19;4.15;;;3.85;;
67839;SDS011;54636;51.684;5.142;2023-02-28T05:28:44;4.07;;;3.65;;
67839;SDS011;54636;51.684;5.142;2023-02-28T05:31:13;5.30;;;3.88;;
67839;SDS011;54636;51.684;5.142;2023-02-28T05:33:38;5.30;;;3.70;;
67839;SDS011;54636;51.684;5.142;2023-02-28T05:36:04;4.00;;;3.67;;
67839;SDS011;54636;51.684;5.142;2023-02-28T05:38:30;4.13;;;3.75;;
67839;SDS011;54636;51.684;5.142;2023-02-28T05:40:56;3.60;;;3.30;;
67839;SDS011;54636;51.684;5.142;2023-02-28T05:43:21;7.47;;;3.70;;
67839;SDS011;54636;51.684;5.142;2023-02-28T05:45:47;3.53;;;3.22;;
67839;SDS011;54636;51.684;5.142;2023-02-28T05:48:13;4.15;;;3.75;;
67839;SDS011;54636;51.684;5.142;2023-02-28T05:50:38;5.68;;;3.92;;
67839;SDS011;54636;51.684;5.142;2023-02-28T05:53:04;3.95;;;3.63;;
67839;SDS011;54636;51.684;5.142;2023-02-28T05:55:29;5.95;;;3.67;;
67839;SDS011;54636;51.684;5.142;2023-02-28T05:57:54;3.80;;;3.55;;
67839;SDS011;54636;51.684;5.142;2023-02-28T06:00:20;5.10;;;3.85;;
67839;SDS011;54636;51.684;5.142;2023-02-28T06:02:46;6.18;;;3.70;;
67839;SDS011;54636;51.684;5.142;2023-02-28T06:05:16;5.15;;;4.43;;
67839;SDS011;54636;51.684;5.142;2023-02-28T06:10:09;5.28;;;3.53;;
67839;SDS011;54636;51.684;5.142;2023-02-28T06:12:35;5.18;;;3.60;;
67839;SDS011;54636;51.684;5.142;2023-02-28T06:15:01;7.40;;;4.82;;
67839;SDS011;54636;51.684;5.142;2023-02-28T06:17:27;3.60;;;3.40;;
67839;SDS011;54636;51.684;5.142;2023-02-28T06:19:52;4.00;;;3.60;;
67839;SDS011;54636;51.684;5.142;2023-02-28T06:22:18;4.13;;;3.80;;
67839;SDS011;54636;51.684;5.142;2023-02-28T06:24:43;8.95;;;4.03;;
67839;SDS011;54636;51.684;5.142;2023-02-28T06:27:09;3.78;;;3.47;;
67839;SDS011;54636;51.684;5.142;2023-02-28T06:29:34;3.88;;;3.35;;
67839;SDS011;54636;51.684;5.142;2023-02-28T06:32:01;12.30;;;3.72;;
67839;SDS011;54636;51.684;5.142;2023-02-28T06:34:27;6.80;;;3.30;;
67839;SDS011;54636;51.684;5.142;2023-02-28T06:36:52;3.67;;;3.10;;
67839;SDS011;54636;51.684;5.142;2023-02-28T06:39:18;3.75;;;3.20;;
67839;SDS011;54636;51.684;5.142;2023-02-28T06:41:43;7.25;;;3.80;;
67839;SDS011;54636;51.684;5.142;2023-02-28T06:44:11;4.65;;;4.25;;
67839;SDS011;54636;51.684;5.142;2023-02-28T06:46:39;6.53;;;4.40;;
67839;SDS011;54636;51.684;5.142;2023-02-28T06:49:05;4.18;;;3.67;;
67839;SDS011;54636;51.684;5.142;2023-02-28T06:51:33;5.78;;;3.50;;
67839;SDS011;54636;51.684;5.142;2023-02-28T06:53:59;3.00;;;2.80;;
67839;SDS011;54636;51.684;5.142;2023-02-28T06:56:25;6.13;;;3.90;;
67839;SDS011;54636;51.684;5.142;2023-02-28T06:58:50;4.35;;;3.92;;
67839;SDS011;54636;51.684;5.142;2023-02-28T07:01:17;5.55;;;3.72;;
67839;SDS011;54636;51.684;5.142;2023-02-28T07:03:44;5.78;;;3.13;;
67839;SDS011;54636;51.684;5.142;2023-02-28T07:06:10;4.78;;;3.63;;
67839;SDS011;54636;51.684;5.142;2023-02-28T07:08:35;4.88;;;3.50;;
67839;SDS011;54636;51.684;5.142;2023-02-28T07:11:01;4.00;;;3.00;;
67839;SDS011;54636;51.684;5.142;2023-02-28T07:13:27;4.30;;;2.92;;
67839;SDS011;54636;51.684;5.142;2023-02-28T07:15:54;5.00;;;2.95;;
67839;SDS011;54636;51.684;5.142;2023-02-28T07:18:21;9.23;;;3.03;;
67839;SDS011;54636;51.684;5.142;2023-02-28T07:20:46;11.30;;;3.53;;
67839;SDS011;54636;51.684;5.142;2023-02-28T07:23:12;5.22;;;3.50;;
67839;SDS011;54636;51.684;5.142;2023-02-28T07:25:37;7.20;;;2.90;;
67839;SDS011;54636;51.684;5.142;2023-02-28T07:28:02;10.23;;;3.53;;
67839;SDS011;54636;51.684;5.142;2023-02-28T07:30:28;5.72;;;3.25;;
67839;SDS011;54636;51.684;5.142;2023-02-28T07:32:53;4.18;;;3.15;;
67839;SDS011;54636;51.684;5.142;2023-02-28T07:35:21;3.63;;;2.78;;
67839;SDS011;54636;51.684;5.142;2023-02-28T07:37:47;3.28;;;2.97;;
67839;SDS011;54636;51.684;5.142;2023-02-28T07:40:12;3.53;;;2.80;;
67839;SDS011;54636;51.684;5.142;2023-02-28T07:42:38;2.97;;;2.15;;
67839;SDS011;54636;51.684;5.142;2023-02-28T07:45:08;4.37;;;2.90;;
67839;SDS011;54636;51.684;5.142;2023-02-28T07:47:36;4.03;;;2.63;;
67839;SDS011;54636;51.684;5.142;2023-02-28T07:50:07;2.80;;;2.60;;
67839;SDS011;54636;51.684;5.142;2023-02-28T07:52:34;4.28;;;2.17;;
67839;SDS011;54636;51.684;5.142;2023-02-28T07:54:59;7.43;;;2.60;;
67839;SDS011;54636;51.684;5.142;2023-02-28T07:57:25;4.72;;;2.90;;
67839;SDS011;54636;51.684;5.142;2023-02-28T07:59:50;2.70;;;2.30;;
67839;SDS011;54636;51.684;5.142;2023-02-28T08:02:16;2.75;;;2.03;;
67839;SDS011;54636;51.684;5.142;2023-02-28T08:04:43;4.00;;;2.20;;
67839;SDS011;54636;51.684;5.142;2023-02-28T08:07:09;3.03;;;1.80;;
67839;SDS011;54636;51.684;5.142;2023-02-28T08:09:38;1.75;;;1.58;;
67839;SDS011;54636;51.684;5.142;2023-02-28T08:12:04;0.88;;;0.85;;
67839;SDS011;54636;51.684;5.142;2023-02-28T08:14:30;2.88;;;2.03;;
67839;SDS011;54636;51.684;5.142;2023-02-28T08:16:55;1.45;;;1.35;;
67839;SDS011;54636;51.684;5.142;2023-02-28T08:19:20;1.85;;;1.75;;
67839;SDS011;54636;51.684;5.142;2023-02-28T08:21:46;1.80;;;1.70;;
67839;SDS011;54636;51.684;5.142;2023-02-28T08:24:11;1.73;;;1.63;;
67839;SDS011;54636;51.684;5.142;2023-02-28T08:26:36;1.70;;;1.60;;
67839;SDS011;54636;51.684;5.142;2023-02-28T08:29:02;3.75;;;1.83;;
67839;SDS011;54636;51.684;5.142;2023-02-28T08:31:27;2.38;;;1.10;;
67839;SDS011;54636;51.684;5.142;2023-02-28T08:33:52;1.38;;;1.30;;
67839;SDS011;54636;51.684;5.142;2023-02-28T08:36:20;1.40;;;1.30;;
67839;SDS011;54636;51.684;5.142;2023-02-28T08:38:46;4.22;;;1.42;;
67839;SDS011;54636;51.684;5.142;2023-02-28T08:41:12;1.73;;;1.63;;
67839;SDS011;54636;51.684;5.142;2023-02-28T08:43:38;1.63;;;1.52;;
67839;SDS011;54636;51.684;5.142;2023-02-28T08:46:04;3.15;;;1.30;;
67839;SDS011;54636;51.684;5.142;2023-02-28T08:48:31;1.30;;;1.20;;
67839;SDS011;54636;51.684;5.142;2023-02-28T08:51:08;0.95;;;0.95;;
67839;SDS011;54636;51.684;5.142;2023-02-28T08:53:41;1.00;;;1.00;;
67839;SDS011;54636;51.684;5.142;2023-02-28T08:56:09;0.93;;;0.93;;
67839;SDS011;54636;51.684;5.142;2023-02-28T08:58:38;1.30;;;1.10;;
67839;SDS011;54636;51.684;5.142;2023-02-28T09:01:11;1.45;;;1.35;;
67839;SDS011;54636;51.684;5.142;2023-02-28T09:03:37;1.30;;;1.20;;
67839;SDS011;54636;51.684;5.142;2023-02-28T09:06:03;0.70;;;0.70;;
67839;SDS011;54636;51.684;5.142;2023-02-28T09:08:29;1.35;;;1.17;;
67839;SDS011;54636;51.684;5.142;2023-02-28T09:10:56;1.02;;;1.02;;
67839;SDS011;54636;51.684;5.142;2023-02-28T09:13:23;1.10;;;1.10;;
67839;SDS011;54636;51.684;5.142;2023-02-28T09:15:52;1.67;;;1.58;;
67839;SDS011;54636;51.684;5.142;2023-02-28T09:18:18;2.25;;;0.98;;
67839;SDS011;54636;51.684;5.142;2023-02-28T09:20:43;1.23;;;1.13;;
67839;SDS011;54636;51.684;5.142;2023-02-28T09:23:10;1.38;;;1.27;;
67839;SDS011;54636;51.684;5.142;2023-02-28T09:25:37;1.15;;;1.15;;
67839;SDS011;54636;51.684;5.142;2023-02-28T09:28:03;3.33;;;1.10;;
67839;SDS011;54636;51.684;5.142;2023-02-28T09:30:29;1.08;;;1.05;;
67839;SDS011;54636;51.684;5.142;2023-02-28T09:32:55;0.68;;;0.68;;
67839;SDS011;54636;51.684;5.142;2023-02-28T09:35:21;2.83;;;1.30;;
67839;SDS011;54636;51.684;5.142;2023-02-28T09:37:49;0.90;;;0.90;;
67839;SDS011;54636;51.684;5.142;2023-02-28T09:40:17;1.35;;;1.25;;
67839;SDS011;54636;51.684;5.142;2023-02-28T09:42:45;1.13;;;0.75;;
67839;SDS011;54636;51.684;5.142;2023-02-28T09:47:47;3.40;;;1.58;;
67839;SDS011;54636;51.684;5.142;2023-02-28T09:52:49;1.15;;;1.10;;
67839;SDS011;54636;51.684;5.142;2023-02-28T09:57:47;1.20;;;1.05;;
67839;SDS011;54636;51.684;5.142;2023-02-28T10:00:18;1.08;;;1.00;;
67839;SDS011;54636;51.684;5.142;2023-02-28T10:05:29;1.13;;;1.02;;
67839;SDS011;54636;51.684;5.142;2023-02-28T10:08:10;1.95;;;1.38;;
67839;SDS011;54636;51.684;5.142;2023-02-28T10:10:44;0.80;;;0.80;;
67839;SDS011;54636;51.684;5.142;2023-02-28T10:13:16;1.40;;;1.30;;
67839;SDS011;54636;51.684;5.142;2023-02-28T10:15:46;1.05;;;1.00;;
67839;SDS011;54636;51.684;5.142;2023-02-28T10:18:16;4.97;;;1.30;;
67839;SDS011;54636;51.684;5.142;2023-02-28T10:20:48;0.95;;;0.80;;
67839;SDS011;54636;51.684;5.142;2023-02-28T10:25:53;1.67;;;1.27;;
67839;SDS011;54636;51.684;5.142;2023-02-28T10:28:23;0.80;;;0.68;;
67839;SDS011;54636;51.684;5.142;2023-02-28T10:30:51;0.93;;;0.90;;
67839;SDS011;54636;51.684;5.142;2023-02-28T10:35:46;0.95;;;0.95;;
67839;SDS011;54636;51.684;5.142;2023-02-28T10:38:15;1.30;;;1.20;;
67839;SDS011;54636;51.684;5.142;2023-02-28T10:40:43;2.03;;;1.83;;
67839;SDS011;54636;51.684;5.142;2023-02-28T10:45:52;1.73;;;1.63;;
67839;SDS011;54636;51.684;5.142;2023-02-28T11:03:57;1.15;;;1.05;;
67839;SDS011;54636;51.684;5.142;2023-02-28T11:06:27;0.82;;;0.82;;
67839;SDS011;54636;51.684;5.142;2023-02-28T11:08:57;0.88;;;0.88;;
67839;SDS011;54636;51.684;5.142;2023-02-28T11:11:25;1.63;;;1.33;;
67839;SDS011;54636;51.684;5.142;2023-02-28T11:13:53;1.60;;;1.27;;
67839;SDS011;54636;51.684;5.142;2023-02-28T11:16:21;1.10;;;1.10;;
67839;SDS011;54636;51.684;5.142;2023-02-28T11:18:55;1.25;;;1.15;;
67839;SDS011;54636;51.684;5.142;2023-02-28T11:21:26;1.48;;;1.40;;
67839;SDS011;54636;51.684;5.142;2023-02-28T11:24:02;1.73;;;1.35;;
67839;SDS011;54636;51.684;5.142;2023-02-28T11:26:42;1.15;;;1.08;;
67839;SDS011;54636;51.684;5.142;2023-02-28T11:29:28;1.25;;;0.77;;
67839;SDS011;54636;51.684;5.142;2023-02-28T11:34:36;2.92;;;1.13;;
67839;SDS011;54636;51.684;5.142;2023-02-28T11:37:03;0.98;;;0.98;;
67839;SDS011;54636;51.684;5.142;2023-02-28T11:39:31;1.23;;;1.23;;
67839;SDS011;54636;51.684;5.142;2023-02-28T12:05:29;1.10;;;1.10;;
67839;SDS011;54636;51.684;5.142;2023-02-28T12:10:29;1.85;;;1.20;;
67839;SDS011;54636;51.684;5.142;2023-02-28T12:18:47;0.88;;;0.88;;
67839;SDS011;54636;51.684;5.142;2023-02-28T12:26:40;1.15;;;1.15;;
67839;SDS011;54636;51.684;5.142;2023-02-28T12:29:23;1.10;;;1.10;;
67839;SDS011;54636;51.684;5.142;2023-02-28T12:32:09;1.25;;;1.23;;
67839;SDS011;54636;51.684;5.142;2023-02-28T12:34:43;1.42;;;1.33;;
67839;SDS011;54636;51.684;5.142;2023-02-28T12:37:46;2.58;;;1.48;;
67839;SDS011;54636;51.684;5.142;2023-02-28T12:40:12;1.38;;;1.30;;
67839;SDS011;54636;51.684;5.142;2023-02-28T12:42:44;1.35;;;1.25;;
67839;SDS011;54636;51.684;5.142;2023-02-28T12:47:44;1.20;;;1.10;;
67839;SDS011;54636;51.684;5.142;2023-02-28T12:52:43;1.55;;;1.48;;
67839;SDS011;54636;51.684;5.142;2023-02-28T12:55:20;1.08;;;1.08;;
67839;SDS011;54636;51.684;5.142;2023-02-28T13:00:25;1.60;;;1.50;;
67839;SDS011;54636;51.684;5.142;2023-02-28T13:08:24;1.20;;;1.10;;
67839;SDS011;54636;51.684;5.142;2023-02-28T13:11:44;0.95;;;0.93;;
67839;SDS011;54636;51.684;5.142;2023-02-28T13:14:22;1.08;;;1.08;;
67839;SDS011;54636;51.684;5.142;2023-02-28T13:17:01;1.40;;;1.10;;
67839;SDS011;54636;51.684;5.142;2023-02-28T13:19:37;1.83;;;1.10;;
67839;SDS011;54636;51.684;5.142;2023-02-28T13:22:05;1.40;;;1.30;;
67839;SDS011;54636;51.684;5.142;2023-02-28T13:24:47;1.50;;;1.40;;
67839;SDS011;54636;51.684;5.142;2023-02-28T13:29:40;1.40;;;1.20;;
67839;SDS011;54636;51.684;5.142;2023-02-28T13:34:40;2.63;;;1.40;;
67839;SDS011;54636;51.684;5.142;2023-02-28T13:42:53;1.50;;;1.40;;
67839;SDS011;54636;51.684;5.142;2023-02-28T13:50:21;1.02;;;1.02;;
67839;SDS011;54636;51.684;5.142;2023-02-28T13:55:37;1.60;;;1.50;;
67839;SDS011;54636;51.684;5.142;2023-02-28T14:11:36;1.90;;;1.80;;
67839;SDS011;54636;51.684;5.142;2023-02-28T14:14:04;1.10;;;1.10;;
67839;SDS011;54636;51.684;5.142;2023-02-28T14:16:39;5.63;;;1.48;;
67839;SDS011;54636;51.684;5.142;2023-02-28T14:19:25;1.50;;;1.40;;
67839;SDS011;54636;51.684;5.142;2023-02-28T14:24:51;1.40;;;1.30;;
67839;SDS011;54636;51.684;5.142;2023-02-28T14:30:29;1.40;;;1.40;;
67839;SDS011;54636;51.684;5.142;2023-02-28T14:33:27;0.98;;;0.98;;
67839;SDS011;54636;51.684;5.142;2023-02-28T14:36:18;4.25;;;1.52;;
67839;SDS011;54636;51.684;5.142;2023-02-28T14:38:50;1.63;;;1.40;;
67839;SDS011;54636;51.684;5.142;2023-02-28T14:41:31;1.65;;;1.38;;
67839;SDS011;54636;51.684;5.142;2023-02-28T14:43:59;1.83;;;1.55;;
67839;SDS011;54636;51.684;5.142;2023-02-28T14:46:44;3.33;;;1.80;;
67839;SDS011;54636;51.684;5.142;2023-02-28T14:49:30;1.88;;;1.67;;
67839;SDS011;54636;51.684;5.142;2023-02-28T14:52:03;1.48;;;1.38;;
67839;SDS011;54636;51.684;5.142;2023-02-28T14:54:34;1.73;;;1.42;;
67839;SDS011;54636;51.684;5.142;2023-02-28T14:57:04;1.70;;;1.60;;
67839;SDS011;54636;51.684;5.142;2023-02-28T14:59:31;3.65;;;1.70;;
67839;SDS011;54636;51.684;5.142;2023-02-28T15:02:18;2.85;;;2.08;;
67839;SDS011;54636;51.684;5.142;2023-02-28T15:04:52;2.10;;;1.42;;
67839;SDS011;54636;51.684;5.142;2023-02-28T15:07:19;1.67;;;1.58;;
67839;SDS011;54636;51.684;5.142;2023-02-28T15:09:44;2.00;;;1.80;;
67839;SDS011;54636;51.684;5.142;2023-02-28T15:12:13;8.73;;;1.60;;
67839;SDS011;54636;51.684;5.142;2023-02-28T15:17:11;2.10;;;2.00;;
67839;SDS011;54636;51.684;5.142;2023-02-28T15:19:47;2.78;;;1.77;;
67839;SDS011;54636;51.684;5.142;2023-02-28T15:22:16;1.70;;;1.60;;
67839;SDS011;54636;51.684;5.142;2023-02-28T15:24:49;1.73;;;1.63;;
67839;SDS011;54636;51.684;5.142;2023-02-28T15:27:27;1.73;;;1.63;;
67839;SDS011;54636;51.684;5.142;2023-02-28T15:29:58;3.00;;;1.70;;
67839;SDS011;54636;51.684;5.142;2023-02-28T15:32:30;1.95;;;1.85;;
67839;SDS011;54636;51.684;5.142;2023-02-28T15:34:58;5.95;;;1.52;;
67839;SDS011;54636;51.684;5.142;2023-02-28T15:37:58;1.67;;;1.23;;
67839;SDS011;54636;51.684;5.142;2023-02-28T15:40:38;4.85;;;1.38;;
67839;SDS011;54636;51.684;5.142;2023-02-28T15:45:45;1.58;;;1.33;;
67839;SDS011;54636;51.684;5.142;2023-02-28T15:48:20;3.28;;;2.30;;
67839;SDS011;54636;51.684;5.142;2023-02-28T15:50:47;2.17;;;1.48;;
67839;SDS011;54636;51.684;5.142;2023-02-28T15:53:16;1.83;;;1.25;;
67839;SDS011;54636;51.684;5.142;2023-02-28T15:55:44;1.63;;;1.50;;
67839;SDS011;54636;51.684;5.142;2023-02-28T15:58:10;2.00;;;1.20;;
67839;SDS011;54636;51.684;5.142;2023-02-28T16:00:38;1.67;;;1.58;;
67839;SDS011;54636;51.684;5.142;2023-02-28T16:03:23;1.95;;;1.65;;
67839;SDS011;54636;51.684;5.142;2023-02-28T16:08:51;1.80;;;1.70;;
67839;SDS011;54636;51.684;5.142;2023-02-28T16:11:18;1.58;;;1.48;;
67839;SDS011;54636;51.684;5.142;2023-02-28T16:13:45;3.85;;;1.75;;
67839;SDS011;54636;51.684;5.142;2023-02-28T16:16:14;2.30;;;1.30;;
67839;SDS011;54636;51.684;5.142;2023-02-28T16:18:42;1.88;;;1.50;;
67839;SDS011;54636;51.684;5.142;2023-02-28T16:21:08;2.65;;;1.63;;
67839;SDS011;54636;51.684;5.142;2023-02-28T16:23:33;1.77;;;1.67;;
67839;SDS011;54636;51.684;5.142;2023-02-28T16:25:59;1.48;;;1.38;;
67839;SDS011;54636;51.684;5.142;2023-02-28T16:28:25;2.38;;;1.50;;
67839;SDS011;54636;51.684;5.142;2023-02-28T16:30:57;3.97;;;1.95;;
67839;SDS011;54636;51.684;5.142;2023-02-28T16:33:25;3.25;;;1.40;;
67839;SDS011;54636;51.684;5.142;2023-02-28T16:35:51;1.42;;;1.33;;
67839;SDS011;54636;51.684;5.142;2023-02-28T16:38:17;1.52;;;1.42;;
67839;SDS011;54636;51.684;5.142;2023-02-28T16:40:42;1.70;;;1.60;;
67839;SDS011;54636;51.684;5.142;2023-02-28T16:43:09;1.73;;;1.63;;
67839;SDS011;54636;51.684;5.142;2023-02-28T16:45:42;2.30;;;1.70;;
67839;SDS011;54636;51.684;5.142;2023-02-28T16:48:10;6.53;;;1.52;;
67839;SDS011;54636;51.684;5.142;2023-02-28T16:50:38;1.60;;;1.50;;
67839;SDS011;54636;51.684;5.142;2023-02-28T16:53:03;1.63;;;1.52;;
67839;SDS011;54636;51.684;5.142;2023-02-28T16:55:29;1.52;;;1.42;;
67839;SDS011;54636;51.684;5.142;2023-02-28T16:57:55;1.70;;;1.60;;
67839;SDS011;54636;51.684;5.142;2023-02-28T17:00:23;1.77;;;1.67;;
67839;SDS011;54636;51.684;5.142;2023-02-28T17:02:50;1.95;;;1.75;;
67839;SDS011;54636;51.684;5.142;2023-02-28T17:05:16;1.52;;;1.42;;
67839;SDS011;54636;51.684;5.142;2023-02-28T17:07:42;1.90;;;1.80;;
67839;SDS011;54636;51.684;5.142;2023-02-28T17:10:12;2.97;;;1.85;;
67839;SDS011;54636;51.684;5.142;2023-02-28T17:12:43;5.20;;;1.92;;
67839;SDS011;54636;51.684;5.142;2023-02-28T17:15:10;1.75;;;1.65;;
67839;SDS011;54636;51.684;5.142;2023-02-28T17:17:36;3.33;;;1.80;;
67839;SDS011;54636;51.684;5.142;2023-02-28T17:20:02;1.77;;;1.67;;
67839;SDS011;54636;51.684;5.142;2023-02-28T17:22:29;2.63;;;1.75;;
67839;SDS011;54636;51.684;5.142;2023-02-28T17:24:55;1.92;;;1.80;;
67839;SDS011;54636;51.684;5.142;2023-02-28T17:27:23;1.90;;;1.77;;
67839;SDS011;54636;51.684;5.142;2023-02-28T17:29:50;3.35;;;2.50;;
67839;SDS011;54636;51.684;5.142;2023-02-28T17:32:15;2.35;;;2.15;;
67839;SDS011;54636;51.684;5.142;2023-02-28T17:34:41;2.50;;;2.30;;
67839;SDS011;54636;51.684;5.142;2023-02-28T17:37:07;2.42;;;2.22;;
67839;SDS011;54636;51.684;5.142;2023-02-28T17:39:34;2.65;;;2.33;;
67839;SDS011;54636;51.684;5.142;2023-02-28T17:41:59;2.40;;;2.20;;
67839;SDS011;54636;51.684;5.142;2023-02-28T17:44:24;3.30;;;2.20;;
67839;SDS011;54636;51.684;5.142;2023-02-28T17:46:50;2.22;;;2.05;;
67839;SDS011;54636;51.684;5.142;2023-02-28T17:49:16;2.63;;;2.42;;
67839;SDS011;54636;51.684;5.142;2023-02-28T17:51:42;2.72;;;2.33;;
67839;SDS011;54636;51.684;5.142;2023-02-28T17:54:08;3.47;;;2.65;;